Saga Pearl II — 9HA2950 — position and weather

sailwx.info

Track history (hours):
 
Tides and Currents Weather Stations Pressure Air Temp Water Temp Dewpoint Dewpoint Depression Visibility Wind Speed Wind Dir Waves Ship Positions

Saga Pearl II

Last reported at 2018-Dec-10 20:51 UTC. Time now 2018-Dec-11 07:54 UTC.
Position N 51°41' E 002°31'.

Length 165 m; draft 6.5 m.

Type: Ship. MMSI: 256878000.

Date/timePositionNaut miles runAvg speedWind from/ knotsBaromVisibWave heightAir tempDewpointWater temp
2018-Dec-10 20:51N 51°41' E 002°31'513.5
2018-Dec-10 20:30N 51°38' E 002°26'713.7
2018-Dec-10 20:00N 51°33' E 002°18'714.1
2018-Dec-10 19:30N 51°28' E 002°10'714.6
2018-Dec-10 19:01N 51°23' E 002°02'714.6
2018-Dec-10 18:31N 51°17' E 001°55'714.8
2018-Dec-10 18:01N 51°12' E 001°47'715.0
2018-Dec-10 17:31N 51°06' E 001°40'714.4
2018-Dec-10 17:01N 51°01' E 001°31'714.9
2018-Dec-10 16:31N 51°06' E 001°21'2 0.3
2018-Dec-10 09:40N 51°07' E 001°19'0 0.0
2018-Dec-10 07:30N 51°07' E 001°19'3 5.1
2018-Dec-10 07:00N 51°07' E 001°23'4 7.6
2018-Dec-10 06:30N 51°06' E 001°28'4 7.9
2018-Dec-10 06:00N 51°07' E 001°34'4 8.3
2018-Dec-10 05:30N 51°10' E 001°39'4 7.9
2018-Dec-10 05:00N 51°13' E 001°44'4 7.3
2018-Dec-10 04:30N 51°16' E 001°47'3 6.8
2018-Dec-10 04:00N 51°19' E 001°49'3 6.5
2018-Dec-10 03:30N 51°22' E 001°51'6 5.7
2018-Dec-10 02:30N 51°27' E 001°55'3 5.6
2018-Dec-10 02:00N 51°29' E 001°58'3 6.8
2018-Dec-10 01:30N 51°32' E 002°02'4 7.4
2018-Dec-10 01:00N 51°34' E 002°07'4 7.6
2018-Dec-10 00:30N 51°37' E 002°11'6110.9
2018-Dec-09 18:55N 52°23' E 003°14'3610.8
2018-Dec-09 15:33N 52°52' E 003°50'110.6
2018-Dec-09 15:28N 52°53' E 003°51'510.7
2018-Dec-09 14:59N 52°57' E 003°57'511.2
2018-Dec-09 14:30N 52°60' E 004°04'611.7
2018-Dec-09 14:00N 53°03' E 004°12'611.3
2018-Dec-09 13:30N 53°07' E 004°20'612.2
2018-Dec-09 13:00N 53°11' E 004°26'612.3
2018-Dec-09 12:30N 53°17' E 004°30'612.1
2018-Dec-09 12:00N 53°23' E 004°34'711.5
2018-Dec-09 11:26N 53°28' E 004°39'510.8
2018-Dec-09 10:59N 53°30' E 004°47'610.2
2018-Dec-09 10:26N 53°33' E 004°55'6 9.8
2018-Dec-09 09:52N 53°35' E 005°04'4 9.4
2018-Dec-09 09:24N 53°36' E 005°11'9410.5
2018-Dec-09 00:24N 54°02' E 007°44'610.1
2018-Dec-08 23:50N 54°01' E 007°54'3 9.5
2018-Dec-08 23:28N 54°01' E 007°60'5 9.6
2018-Dec-08 23:00N 54°01' E 008°07'4 9.2
2018-Dec-08 22:30N 54°00' E 008°15'5 9.9
2018-Dec-08 22:00N 53°59' E 008°24'5 9.6
2018-Dec-08 21:30N 53°58' E 008°31'713.5
2018-Dec-08 21:00N 53°55' E 008°41'713.9
2018-Dec-08 20:30N 53°50' E 008°50'714.2
2018-Dec-08 20:00N 53°52' E 009°02'611.8
2018-Dec-08 19:30N 53°53' E 009°12'713.6
2018-Dec-08 19:00N 53°49' E 009°22'815.0
2018-Dec-08 18:30N 53°43' E 009°29'613.3
2018-Dec-08 18:00N 53°37' E 009°34'612.0
2018-Dec-08 17:30N 53°34' E 009°42'511.0
2018-Dec-08 17:01N 53°33' E 009°51'3 5.7
2018-Dec-08 16:29N 53°33' E 009°56'0 0.0
2018-Dec-08 15:59N 53°33' E 009°56'0 0.0
2018-Dec-08 15:29N 53°33' E 009°56'0 0.0
2018-Dec-08 14:58N 53°33' E 009°56'0 0.0
2018-Dec-08 14:28N 53°33' E 009°56'0 0.0
2018-Dec-08 13:58N 53°33' E 009°56'0 0.0
2018-Dec-08 13:28N 53°33' E 009°56'0 0.0
2018-Dec-08 12:58N 53°33' E 009°56'0 0.0
2018-Dec-08 12:30N 53°33' E 009°56'0 0.0
2018-Dec-08 12:00N 53°33' E 009°56'0 0.0
2018-Dec-08 11:30N 53°33' E 009°56'0 0.0
2018-Dec-08 11:00N 53°33' E 009°56'0 0.0
2018-Dec-08 10:29N 53°33' E 009°56'0 0.0
2018-Dec-08 09:59N 53°33' E 009°56'0 0.0
2018-Dec-08 09:29N 53°33' E 009°56'0 0.0
2018-Dec-08 08:59N 53°33' E 009°56'0 0.0
2018-Dec-08 08:29N 53°33' E 009°56'0 0.0
2018-Dec-08 07:58N 53°33' E 009°56'0 0.0
2018-Dec-08 07:28N 53°33' E 009°56'0 0.0
2018-Dec-08 06:58N 53°33' E 009°56'0 0.0
2018-Dec-08 06:28N 53°33' E 009°56'0 0.0
2018-Dec-08 05:57N 53°33' E 009°56'0 0.0
2018-Dec-08 05:30N 53°33' E 009°56'0 0.0
2018-Dec-08 05:00N 53°33' E 009°56'0 0.0
2018-Dec-08 04:30N 53°33' E 009°56'0 0.0
2018-Dec-08 04:00N 53°33' E 009°56'0 0.0
2018-Dec-08 03:29N 53°33' E 009°56'0 0.0
2018-Dec-08 02:59N 53°33' E 009°56'0 0.0
2018-Dec-08 02:29N 53°33' E 009°56'0 0.0
2018-Dec-08 01:59N 53°33' E 009°56'0 0.0
2018-Dec-08 01:29N 53°33' E 009°56'0 0.0
2018-Dec-08 00:58N 53°33' E 009°56'0 0.0
2018-Dec-08 00:28N 53°33' E 009°56'0 0.0
2018-Dec-07 23:58N 53°33' E 009°56'0 0.0
2018-Dec-07 23:28N 53°33' E 009°56'0 0.0
2018-Dec-07 23:01N 53°33' E 009°56'0 0.0
2018-Dec-07 22:30N 53°33' E 009°56'0 0.0
2018-Dec-07 22:00N 53°33' E 009°56'0 0.0
2018-Dec-07 21:30N 53°33' E 009°56'0 0.0
2018-Dec-07 21:00N 53°33' E 009°56'0 0.0
2018-Dec-07 20:29N 53°33' E 009°56'0 0.0
2018-Dec-07 19:59N 53°33' E 009°56'0 0.0
2018-Dec-07 19:29N 53°33' E 009°56'0 0.0
2018-Dec-07 18:59N 53°33' E 009°56'0 0.0
2018-Dec-07 18:29N 53°33' E 009°56'0 0.0
2018-Dec-07 17:58N 53°33' E 009°56'0 0.0
2018-Dec-07 17:28N 53°33' E 009°56'0 0.0
2018-Dec-07 16:58N 53°33' E 009°56'0 0.0
2018-Dec-07 16:28N 53°33' E 009°56'0 0.0
2018-Dec-07 16:01N 53°33' E 009°56'0 0.0
2018-Dec-07 15:30N 53°33' E 009°56'0 0.6
2018-Dec-07 15:01N 53°32' E 009°57'4 7.1
2018-Dec-07 14:31N 53°33' E 009°51'612.0
2018-Dec-07 14:01N 53°34' E 009°41'713.7
2018-Dec-07 13:30N 53°38' E 009°32'713.8
2018-Dec-07 13:00N 53°44' E 009°26'816.3
2018-Dec-07 12:30N 53°51' E 009°19'714.4
2018-Dec-07 12:00N 53°53' E 009°07'714.3
2018-Dec-07 11:30N 53°51' E 008°55'714.3
2018-Dec-07 11:00N 53°52' E 008°43'714.7
2018-Dec-07 10:30N 53°58' E 008°35'917.4
2018-Dec-07 10:00N 53°59' E 008°21'813.4
2018-Dec-07 09:24N 53°59' E 008°07'513.7
2018-Dec-07 09:00N 54°01' E 007°58'11 1.0
2018-Dec-06 21:59N 53°54' E 007°45'510.0
2018-Dec-06 21:30N 53°52' E 007°53'510.1
2018-Dec-06 21:00N 53°51' E 008°01'713.1
2018-Dec-06 20:30N 53°47' E 008°10'612.6
2018-Dec-06 20:00N 53°43' E 008°18'612.8
2018-Dec-06 19:30N 53°39' E 008°26'611.9
2018-Dec-06 19:00N 53°34' E 008°32'1 1.4
2018-Dec-06 18:29N 53°34' E 008°33'0 0.0
2018-Dec-06 17:59N 53°34' E 008°33'0 0.0
2018-Dec-06 17:28N 53°34' E 008°33'0 0.0
2018-Dec-06 16:55N 53°34' E 008°33'0 0.0
2018-Dec-06 16:28N 53°34' E 008°33'0 0.0
2018-Dec-06 15:58N 53°34' E 008°33'0 0.0
2018-Dec-06 15:30N 53°34' E 008°33'0 0.0
2018-Dec-06 15:00N 53°34' E 008°33'0 0.0
2018-Dec-06 14:30N 53°34' E 008°33'0 0.0
2018-Dec-06 14:00N 53°34' E 008°33'0 0.0
2018-Dec-06 13:30N 53°34' E 008°33'0 0.0
2018-Dec-06 12:59N 53°34' E 008°33'0 0.0
2018-Dec-06 12:29N 53°34' E 008°33'0 0.0
2018-Dec-06 11:59N 53°34' E 008°33'0 0.0
2018-Dec-06 11:29N 53°34' E 008°33'0 0.0
2018-Dec-06 10:58N 53°34' E 008°33'0 0.0
2018-Dec-06 10:28N 53°34' E 008°33'0 0.0
2018-Dec-06 09:58N 53°34' E 008°33'0 0.0
2018-Dec-06 09:28N 53°34' E 008°33'0 0.0
2018-Dec-06 08:58N 53°34' E 008°33'0 0.0
2018-Dec-06 08:30N 53°34' E 008°33'0 0.0
2018-Dec-06 08:00N 53°34' E 008°33'0 0.0
2018-Dec-06 07:30N 53°34' E 008°33'0 0.2
2018-Dec-06 07:00N 53°34' E 008°33'3 6.8
2018-Dec-06 06:30N 53°36' E 008°30'714.1
2018-Dec-06 06:00N 53°41' E 008°21'815.3
2018-Dec-06 05:30N 53°46' E 008°11'715.0
2018-Dec-06 05:00N 53°51' E 008°01'713.2
2018-Dec-06 04:30N 53°52' E 007°51'4 8.5
2018-Dec-06 04:00N 53°53' E 007°43'8511.5
2018-Dec-05 20:37N 53°34' E 005°23'413.0
2018-Dec-05 20:18N 53°32' E 005°17'1913.3
2018-Dec-05 18:53N 53°25' E 004°47'512.5
2018-Dec-05 18:29N 53°22' E 004°41'713.7
2018-Dec-05 18:00N 53°16' E 004°36'714.0
2018-Dec-05 17:30N 53°10' E 004°31'713.7
2018-Dec-05 17:01N 53°04' E 004°25'713.5
2018-Dec-05 16:31N 52°58' E 004°20'713.7
2018-Dec-05 16:01N 52°52' E 004°15'1213.6
2018-Dec-05 15:09N 52°42' E 004°04'213.5
2018-Dec-05 15:00N 52°41' E 004°02'1013.8
2018-Dec-05 14:16N 52°33' E 003°51'6713.6
2018-Dec-05 09:23N 51°46' E 002°35'712.3
2018-Dec-05 08:50N 51°41' E 002°27'411.9
2018-Dec-05 08:30N 51°38' E 002°23'611.7
2018-Dec-05 08:00N 51°33' E 002°17'511.0
2018-Dec-05 07:30N 51°29' E 002°11'510.9
2018-Dec-05 07:00N 51°25' E 002°06'510.7
2018-Dec-05 06:30N 51°21' E 001°60'510.5
2018-Dec-05 06:00N 51°17' E 001°54'510.4
2018-Dec-05 05:31N 51°13' E 001°49'510.4
2018-Dec-05 05:01N 51°09' E 001°44'510.5
2018-Dec-05 04:30N 51°05' E 001°39'510.5
2018-Dec-05 04:00N 51°01' E 001°34'511.0
2018-Dec-05 03:31N 50°57' E 001°28'611.7
2018-Dec-05 03:00N 50°51' E 001°27'612.1
2018-Dec-05 02:30N 50°45' E 001°25'6 9.0
2018-Dec-05 01:48N 50°41' E 001°17'412.3
2018-Dec-05 01:29N 50°38' E 001°12'7011.3
2018-Dec-04 19:20N 50°31' W 000°37'514.1
2018-Dec-04 19:00N 50°33' W 000°44'3302.6
2018-Dec-04 19:00N 50°30' W 000°42'1020.5 130 / 101023.1 5.4 10.5 0.8
2018-Dec-04 18:30N 50°38' W 000°52'612.2
2018-Dec-04 18:01N 50°42' W 000°58'3164.9
2018-Dec-04 18:00N 50°42' W 000°54'816.3 090 / 141022.7 5.4 9.6 3.4
2018-Dec-04 17:30N 50°45' W 001°05'3 6.5
2018-Dec-04 17:00N 50°49' W 001°06'0 0.0
2018-Dec-04 16:30N 50°49' W 001°06'0 0.0
2018-Dec-04 16:00N 50°49' W 001°06'0 0.0
2018-Dec-04 15:30N 50°49' W 001°06'0 0.0
2018-Dec-04 15:00N 50°49' W 001°06'0 0.0
2018-Dec-04 14:29N 50°49' W 001°06'0 0.0
2018-Dec-04 13:59N 50°49' W 001°06'0 0.0
2018-Dec-04 13:29N 50°49' W 001°06'0 0.0
2018-Dec-04 12:59N 50°49' W 001°06'0 0.0
2018-Dec-04 12:28N 50°49' W 001°06'0 0.0
2018-Dec-04 11:58N 50°49' W 001°06'0 0.0
2018-Dec-04 11:28N 50°49' W 001°06'0 0.0
2018-Dec-04 10:58N 50°49' W 001°06'0 0.0
2018-Dec-04 10:28N 50°49' W 001°06'0 0.0
2018-Dec-04 10:00N 50°49' W 001°06'0 0.0
2018-Dec-04 09:30N 50°49' W 001°06'0 0.0
2018-Dec-04 09:00N 50°49' W 001°06'0 0.0
2018-Dec-04 08:30N 50°49' W 001°06'0 0.0
2018-Dec-04 08:01N 50°49' W 001°06'1 1.8
2018-Dec-04 07:31N 50°48' W 001°07'611.1
2018-Dec-04 07:00N 50°43' W 001°02'611.4
2018-Dec-04 06:30N 50°39' W 000°56'713.4
2018-Dec-04 06:00N 50°37' W 000°46'2813.8
2018-Dec-04 03:59N 50°31' W 000°03'714.0
2018-Dec-04 03:31N 50°33' E 000°07'814.1
2018-Dec-04 02:58N 50°34' E 000°18'714.1
2018-Dec-04 02:29N 50°36' E 000°29'714.1
2018-Dec-04 02:00N 50°39' E 000°39'714.7
2018-Dec-04 01:30N 50°43' E 000°48'714.3
2018-Dec-04 01:00N 50°46' E 000°58'714.2
2018-Dec-04 00:30N 50°50' E 001°07'815.0
2018-Dec-04 00:01N 50°56' E 001°15'815.1
2018-Dec-03 23:30N 51°02' E 001°23'714.4
2018-Dec-03 23:00N 51°06' E 001°32'713.4
2018-Dec-03 22:30N 51°11' E 001°40'713.3
2018-Dec-03 22:00N 51°16' E 001°47'713.9
2018-Dec-03 21:30N 51°22' E 001°52'713.2
2018-Dec-03 21:00N 51°26' E 002°00'714.5
2018-Dec-03 20:30N 51°22' E 002°10'713.1
2018-Dec-03 20:00N 51°21' E 002°20'714.2
2018-Dec-03 19:29N 51°23' E 002°31'714.1
2018-Dec-03 19:00N 51°23' E 002°42'2 4.0
2018-Dec-03 18:30N 51°22' E 002°45'714.1
2018-Dec-03 18:00N 51°23' E 002°56'714.1
2018-Dec-03 17:31N 51°24' E 003°07'5 8.5
2018-Dec-03 16:58N 51°20' E 003°12'0 0.0
2018-Dec-03 16:01N 51°20' E 003°12'0 0.0
2018-Dec-03 15:55N 51°20' E 003°12'0 0.0
2018-Dec-03 15:28N 51°20' E 003°12'0 0.0
2018-Dec-03 15:00N 51°20' E 003°12'0 0.0
2018-Dec-03 14:30N 51°20' E 003°12'0 0.0
2018-Dec-03 14:00N 51°20' E 003°12'0 0.0
2018-Dec-03 13:30N 51°20' E 003°12'0 0.0
2018-Dec-03 13:00N 51°20' E 003°12'0 0.0
2018-Dec-03 12:29N 51°20' E 003°12'0 0.0
2018-Dec-03 11:59N 51°20' E 003°12'0 0.0
2018-Dec-03 11:29N 51°20' E 003°12'0 0.0
2018-Dec-03 10:59N 51°20' E 003°12'0 0.0
2018-Dec-03 10:28N 51°20' E 003°12'0 0.0
2018-Dec-03 09:58N 51°20' E 003°12'0 0.0
2018-Dec-03 09:28N 51°20' E 003°12'0 0.0
2018-Dec-03 08:58N 51°20' E 003°12'0 0.0
2018-Dec-03 08:28N 51°20' E 003°12'0 0.0
2018-Dec-03 08:00N 51°20' E 003°12'0 0.0
2018-Dec-03 07:30N 51°20' E 003°12'1 1.7
2018-Dec-03 07:00N 51°21' E 003°12'713.1
2018-Dec-03 06:30N 51°24' E 003°03'814.2
2018-Dec-03 05:59N 51°22' E 002°52'511.4
2018-Dec-03 05:30N 51°22' E 002°43'711.3
2018-Dec-03 04:53N 51°22' E 002°32'612.3
2018-Dec-03 04:22N 51°28' E 002°34'512.9
2018-Dec-03 03:59N 51°33' E 002°38'5411.5
2018-Dec-02 23:18N 52°20' E 003°21'310.4
2018-Dec-02 22:59N 52°21' E 003°25'510.5
2018-Dec-02 22:30N 52°24' E 003°32'510.5
2018-Dec-02 21:59N 52°27' E 003°39'510.5
2018-Dec-02 21:30N 52°30' E 003°47'610.7
2018-Dec-02 20:59N 52°31' E 003°55'511.5
2018-Dec-02 20:30N 52°31' E 004°04'611.9
2018-Dec-02 20:00N 52°31' E 004°14'612.2
2018-Dec-02 19:30N 52°30' E 004°24'5 9.8
2018-Dec-02 19:00N 52°28' E 004°32'2 4.1
2018-Dec-02 18:30N 52°28' E 004°35'0 0.0
2018-Dec-02 17:57N 52°28' E 004°35'0 0.0
2018-Dec-02 17:29N 52°28' E 004°35'0 0.0
2018-Dec-02 16:59N 52°28' E 004°35'0 0.0
2018-Dec-02 16:29N 52°28' E 004°35'0 0.0
2018-Dec-02 15:59N 52°28' E 004°35'0 0.0
2018-Dec-02 15:29N 52°28' E 004°35'0 0.0
2018-Dec-02 14:58N 52°28' E 004°35'0 0.0
2018-Dec-02 14:28N 52°28' E 004°35'0 0.0
2018-Dec-02 13:55N 52°28' E 004°35'0 0.0
2018-Dec-02 13:28N 52°28' E 004°35'0 0.0
2018-Dec-02 13:00N 52°28' E 004°35'0 0.0
2018-Dec-02 12:30N 52°28' E 004°35'0 0.0
2018-Dec-02 12:00N 52°28' E 004°35'0 0.0
2018-Dec-02 11:30N 52°28' E 004°35'0 0.0
2018-Dec-02 11:00N 52°28' E 004°35'0 0.0
2018-Dec-02 10:29N 52°28' E 004°35'0 0.0
2018-Dec-02 09:59N 52°28' E 004°35'0 0.0
2018-Dec-02 09:29N 52°28' E 004°35'0 0.0
2018-Dec-02 08:59N 52°28' E 004°35'0 0.0
2018-Dec-02 08:28N 52°28' E 004°35'0 0.0
2018-Dec-02 07:58N 52°28' E 004°35'0 0.0
2018-Dec-02 07:28N 52°28' E 004°35'0 0.0
2018-Dec-02 06:58N 52°28' E 004°35'0 0.6
2018-Dec-02 06:30N 52°28' E 004°35'4 8.5
2018-Dec-02 06:00N 52°28' E 004°28'612.1
2018-Dec-02 05:31N 52°28' E 004°18'612.5
2018-Dec-02 05:00N 52°29' E 004°08'811.9
2018-Dec-02 04:19N 52°27' E 003°55'512.0
2018-Dec-02 03:56N 52°25' E 003°48'511.7
2018-Dec-02 03:30N 52°24' E 003°40'3511.5
2018-Dec-02 00:26N 52°01' E 002°57'2411.7
2018-Dec-01 22:23N 51°43' E 002°30'820.7
2018-Dec-01 22:00N 51°36' E 002°24'3383.0 220 / 28999.510.8 12.711.814.5
2018-Dec-01 21:59N 51°39' E 002°25'612.4
2018-Dec-01 21:30N 51°35' E 002°19'612.9
2018-Dec-01 21:00N 51°30' E 002°12'612.8
2018-Dec-01 20:30N 51°25' E 002°05'612.9
2018-Dec-01 20:00N 51°20' E 001°59'713.2
2018-Dec-01 19:31N 51°15' E 001°52'714.2
2018-Dec-01 19:00N 51°10' E 001°45'714.4
2018-Dec-01 18:30N 51°04' E 001°37'510.2
2018-Dec-01 18:00N 51°05' E 001°29'510.4
2018-Dec-01 17:31N 51°08' E 001°22'2 3.6
2018-Dec-01 16:57N 51°07' E 001°19'0 0.0
2018-Dec-01 16:27N 51°07' E 001°19'0 0.0
2018-Dec-01 15:59N 51°07' E 001°19'0 0.0
2018-Dec-01 15:20N 51°07' E 001°19'0 0.0
2018-Dec-01 14:59N 51°07' E 001°19'0 0.0
2018-Dec-01 11:00N 51°07' E 001°19'0 0.0
2018-Dec-01 10:30N 51°07' E 001°19'0 0.0
2018-Dec-01 10:00N 51°07' E 001°19'0 0.0
2018-Dec-01 09:30N 51°07' E 001°19'0 0.0
2018-Dec-01 08:43N 51°07' E 001°19'0 1.7
2018-Dec-01 08:30N 51°07' E 001°20'3 5.4
2018-Dec-01 08:00N 51°07' E 001°24'611.2
2018-Dec-01 07:30N 51°02' E 001°25'714.3
2018-Dec-01 07:00N 50°55' E 001°25'917.1
2018-Dec-01 06:30N 50°47' E 001°22'816.1
2018-Dec-01 05:59N 50°40' E 001°14'2515.1
2018-Dec-01 04:17N 50°27' E 000°39'6017.2
2018-Dec-01 00:48N 50°11' W 000°52'517.2
2018-Dec-01 00:30N 50°10' W 000°60'816.9
2018-Dec-01 00:00N 50°08' W 001°12'816.4
2018-Nov-30 23:30N 50°06' W 001°25'816.0
2018-Nov-30 23:00N 50°04' W 001°36'5371.1
2018-Nov-30 23:00N 50°00' W 001°30'1223.6 210 / 251014.310.8 12.3 6.415.5
2018-Nov-30 22:28N 50°02' W 001°49'  
Track history (hours):
 
Tides and Currents Weather Stations Pressure Air Temp Water Temp Dewpoint Dewpoint Depression Visibility Wind Speed Wind Dir Waves Ship Positions

Saga Pearl II

Last reported at 2018-Dec-10 20:51 UTC. Time now 2018-Dec-11 07:54 UTC.
Position N 51°41' E 002°31'.

Length 165 m; draft 6.5 m.

Type: Ship. MMSI: 256878000.

Date/timePositionNaut miles runAvg speedWind from/ knotsBaromVisibWave heightAir tempDewpointWater temp
2018-Dec-10 20:51N 51°41' E 002°31'513.5
2018-Dec-10 20:30N 51°38' E 002°26'713.7
2018-Dec-10 20:00N 51°33' E 002°18'714.1
2018-Dec-10 19:30N 51°28' E 002°10'714.6
2018-Dec-10 19:01N 51°23' E 002°02'714.6
2018-Dec-10 18:31N 51°17' E 001°55'714.8
2018-Dec-10 18:01N 51°12' E 001°47'715.0
2018-Dec-10 17:31N 51°06' E 001°40'714.4
2018-Dec-10 17:01N 51°01' E 001°31'714.9
2018-Dec-10 16:31N 51°06' E 001°21'2 0.3
2018-Dec-10 09:40N 51°07' E 001°19'0 0.0
2018-Dec-10 07:30N 51°07' E 001°19'3 5.1
2018-Dec-10 07:00N 51°07' E 001°23'4 7.6
2018-Dec-10 06:30N 51°06' E 001°28'4 7.9
2018-Dec-10 06:00N 51°07' E 001°34'4 8.3
2018-Dec-10 05:30N 51°10' E 001°39'4 7.9
2018-Dec-10 05:00N 51°13' E 001°44'4 7.3
2018-Dec-10 04:30N 51°16' E 001°47'3 6.8
2018-Dec-10 04:00N 51°19' E 001°49'3 6.5
2018-Dec-10 03:30N 51°22' E 001°51'6 5.7
2018-Dec-10 02:30N 51°27' E 001°55'3 5.6
2018-Dec-10 02:00N 51°29' E 001°58'3 6.8
2018-Dec-10 01:30N 51°32' E 002°02'4 7.4
2018-Dec-10 01:00N 51°34' E 002°07'4 7.6
2018-Dec-10 00:30N 51°37' E 002°11'6110.9
2018-Dec-09 18:55N 52°23' E 003°14'3610.8
2018-Dec-09 15:33N 52°52' E 003°50'110.6
2018-Dec-09 15:28N 52°53' E 003°51'510.7
2018-Dec-09 14:59N 52°57' E 003°57'511.2
2018-Dec-09 14:30N 52°60' E 004°04'611.7
2018-Dec-09 14:00N 53°03' E 004°12'611.3
2018-Dec-09 13:30N 53°07' E 004°20'612.2
2018-Dec-09 13:00N 53°11' E 004°26'612.3
2018-Dec-09 12:30N 53°17' E 004°30'612.1
2018-Dec-09 12:00N 53°23' E 004°34'711.5
2018-Dec-09 11:26N 53°28' E 004°39'510.8
2018-Dec-09 10:59N 53°30' E 004°47'610.2
2018-Dec-09 10:26N 53°33' E 004°55'6 9.8
2018-Dec-09 09:52N 53°35' E 005°04'4 9.4
2018-Dec-09 09:24N 53°36' E 005°11'9410.5
2018-Dec-09 00:24N 54°02' E 007°44'610.1
2018-Dec-08 23:50N 54°01' E 007°54'3 9.5
2018-Dec-08 23:28N 54°01' E 007°60'5 9.6
2018-Dec-08 23:00N 54°01' E 008°07'4 9.2
2018-Dec-08 22:30N 54°00' E 008°15'5 9.9
2018-Dec-08 22:00N 53°59' E 008°24'5 9.6
2018-Dec-08 21:30N 53°58' E 008°31'713.5
2018-Dec-08 21:00N 53°55' E 008°41'713.9
2018-Dec-08 20:30N 53°50' E 008°50'714.2
2018-Dec-08 20:00N 53°52' E 009°02'611.8
2018-Dec-08 19:30N 53°53' E 009°12'713.6
2018-Dec-08 19:00N 53°49' E 009°22'815.0
2018-Dec-08 18:30N 53°43' E 009°29'613.3
2018-Dec-08 18:00N 53°37' E 009°34'612.0
2018-Dec-08 17:30N 53°34' E 009°42'511.0
2018-Dec-08 17:01N 53°33' E 009°51'3 5.7
2018-Dec-08 16:29N 53°33' E 009°56'0 0.0
2018-Dec-08 15:59N 53°33' E 009°56'0 0.0
2018-Dec-08 15:29N 53°33' E 009°56'0 0.0
2018-Dec-08 14:58N 53°33' E 009°56'0 0.0
2018-Dec-08 14:28N 53°33' E 009°56'0 0.0
2018-Dec-08 13:58N 53°33' E 009°56'0 0.0
2018-Dec-08 13:28N 53°33' E 009°56'0 0.0
2018-Dec-08 12:58N 53°33' E 009°56'0 0.0
2018-Dec-08 12:30N 53°33' E 009°56'0 0.0
2018-Dec-08 12:00N 53°33' E 009°56'0 0.0
2018-Dec-08 11:30N 53°33' E 009°56'0 0.0
2018-Dec-08 11:00N 53°33' E 009°56'0 0.0
2018-Dec-08 10:29N 53°33' E 009°56'0 0.0
2018-Dec-08 09:59N 53°33' E 009°56'0 0.0
2018-Dec-08 09:29N 53°33' E 009°56'0 0.0
2018-Dec-08 08:59N 53°33' E 009°56'0 0.0
2018-Dec-08 08:29N 53°33' E 009°56'0 0.0
2018-Dec-08 07:58N 53°33' E 009°56'0 0.0
2018-Dec-08 07:28N 53°33' E 009°56'0 0.0
2018-Dec-08 06:58N 53°33' E 009°56'0 0.0
2018-Dec-08 06:28N 53°33' E 009°56'0 0.0
2018-Dec-08 05:57N 53°33' E 009°56'0 0.0
2018-Dec-08 05:30N 53°33' E 009°56'0 0.0
2018-Dec-08 05:00N 53°33' E 009°56'0 0.0
2018-Dec-08 04:30N 53°33' E 009°56'0 0.0
2018-Dec-08 04:00N 53°33' E 009°56'0 0.0
2018-Dec-08 03:29N 53°33' E 009°56'0 0.0
2018-Dec-08 02:59N 53°33' E 009°56'0 0.0
2018-Dec-08 02:29N 53°33' E 009°56'0 0.0
2018-Dec-08 01:59N 53°33' E 009°56'0 0.0
2018-Dec-08 01:29N 53°33' E 009°56'0 0.0
2018-Dec-08 00:58N 53°33' E 009°56'0 0.0
2018-Dec-08 00:28N 53°33' E 009°56'0 0.0
2018-Dec-07 23:58N 53°33' E 009°56'0 0.0
2018-Dec-07 23:28N 53°33' E 009°56'0 0.0
2018-Dec-07 23:01N 53°33' E 009°56'0 0.0
2018-Dec-07 22:30N 53°33' E 009°56'0 0.0
2018-Dec-07 22:00N 53°33' E 009°56'0 0.0
2018-Dec-07 21:30N 53°33' E 009°56'0 0.0
2018-Dec-07 21:00N 53°33' E 009°56'0 0.0
2018-Dec-07 20:29N 53°33' E 009°56'0 0.0
2018-Dec-07 19:59N 53°33' E 009°56'0 0.0
2018-Dec-07 19:29N 53°33' E 009°56'0 0.0
2018-Dec-07 18:59N 53°33' E 009°56'0 0.0
2018-Dec-07 18:29N 53°33' E 009°56'0 0.0
2018-Dec-07 17:58N 53°33' E 009°56'0 0.0
2018-Dec-07 17:28N 53°33' E 009°56'0 0.0
2018-Dec-07 16:58N 53°33' E 009°56'0 0.0
2018-Dec-07 16:28N 53°33' E 009°56'0 0.0
2018-Dec-07 16:01N 53°33' E 009°56'0 0.0
2018-Dec-07 15:30N 53°33' E 009°56'0 0.6
2018-Dec-07 15:01N 53°32' E 009°57'4 7.1
2018-Dec-07 14:31N 53°33' E 009°51'612.0
2018-Dec-07 14:01N 53°34' E 009°41'713.7
2018-Dec-07 13:30N 53°38' E 009°32'713.8
2018-Dec-07 13:00N 53°44' E 009°26'816.3
2018-Dec-07 12:30N 53°51' E 009°19'714.4
2018-Dec-07 12:00N 53°53' E 009°07'714.3
2018-Dec-07 11:30N 53°51' E 008°55'714.3
2018-Dec-07 11:00N 53°52' E 008°43'714.7
2018-Dec-07 10:30N 53°58' E 008°35'917.4
2018-Dec-07 10:00N 53°59' E 008°21'813.4
2018-Dec-07 09:24N 53°59' E 008°07'513.7
2018-Dec-07 09:00N 54°01' E 007°58'11 1.0
2018-Dec-06 21:59N 53°54' E 007°45'510.0
2018-Dec-06 21:30N 53°52' E 007°53'510.1
2018-Dec-06 21:00N 53°51' E 008°01'713.1
2018-Dec-06 20:30N 53°47' E 008°10'612.6
2018-Dec-06 20:00N 53°43' E 008°18'612.8
2018-Dec-06 19:30N 53°39' E 008°26'611.9
2018-Dec-06 19:00N 53°34' E 008°32'1 1.4
2018-Dec-06 18:29N 53°34' E 008°33'0 0.0
2018-Dec-06 17:59N 53°34' E 008°33'0 0.0
2018-Dec-06 17:28N 53°34' E 008°33'0 0.0
2018-Dec-06 16:55N 53°34' E 008°33'0 0.0
2018-Dec-06 16:28N 53°34' E 008°33'0 0.0
2018-Dec-06 15:58N 53°34' E 008°33'0 0.0
2018-Dec-06 15:30N 53°34' E 008°33'0 0.0
2018-Dec-06 15:00N 53°34' E 008°33'0 0.0
2018-Dec-06 14:30N 53°34' E 008°33'0 0.0
2018-Dec-06 14:00N 53°34' E 008°33'0 0.0
2018-Dec-06 13:30N 53°34' E 008°33'0 0.0
2018-Dec-06 12:59N 53°34' E 008°33'0 0.0
2018-Dec-06 12:29N 53°34' E 008°33'0 0.0
2018-Dec-06 11:59N 53°34' E 008°33'0 0.0
2018-Dec-06 11:29N 53°34' E 008°33'0 0.0
2018-Dec-06 10:58N 53°34' E 008°33'0 0.0
2018-Dec-06 10:28N 53°34' E 008°33'0 0.0
2018-Dec-06 09:58N 53°34' E 008°33'0 0.0
2018-Dec-06 09:28N 53°34' E 008°33'0 0.0
2018-Dec-06 08:58N 53°34' E 008°33'0 0.0
2018-Dec-06 08:30N 53°34' E 008°33'0 0.0
2018-Dec-06 08:00N 53°34' E 008°33'0 0.0
2018-Dec-06 07:30N 53°34' E 008°33'0 0.2
2018-Dec-06 07:00N 53°34' E 008°33'3 6.8
2018-Dec-06 06:30N 53°36' E 008°30'714.1
2018-Dec-06 06:00N 53°41' E 008°21'815.3
2018-Dec-06 05:30N 53°46' E 008°11'715.0
2018-Dec-06 05:00N 53°51' E 008°01'713.2
2018-Dec-06 04:30N 53°52' E 007°51'4 8.5
2018-Dec-06 04:00N 53°53' E 007°43'8511.5
2018-Dec-05 20:37N 53°34' E 005°23'413.0
2018-Dec-05 20:18N 53°32' E 005°17'1913.3
2018-Dec-05 18:53N 53°25' E 004°47'512.5
2018-Dec-05 18:29N 53°22' E 004°41'713.7
2018-Dec-05 18:00N 53°16' E 004°36'714.0
2018-Dec-05 17:30N 53°10' E 004°31'713.7
2018-Dec-05 17:01N 53°04' E 004°25'713.5
2018-Dec-05 16:31N 52°58' E 004°20'713.7
2018-Dec-05 16:01N 52°52' E 004°15'1213.6
2018-Dec-05 15:09N 52°42' E 004°04'213.5
2018-Dec-05 15:00N 52°41' E 004°02'1013.8
2018-Dec-05 14:16N 52°33' E 003°51'6713.6
2018-Dec-05 09:23N 51°46' E 002°35'712.3
2018-Dec-05 08:50N 51°41' E 002°27'411.9
2018-Dec-05 08:30N 51°38' E 002°23'611.7
2018-Dec-05 08:00N 51°33' E 002°17'511.0
2018-Dec-05 07:30N 51°29' E 002°11'510.9
2018-Dec-05 07:00N 51°25' E 002°06'510.7
2018-Dec-05 06:30N 51°21' E 001°60'510.5
2018-Dec-05 06:00N 51°17' E 001°54'510.4
2018-Dec-05 05:31N 51°13' E 001°49'510.4
2018-Dec-05 05:01N 51°09' E 001°44'510.5
2018-Dec-05 04:30N 51°05' E 001°39'510.5
2018-Dec-05 04:00N 51°01' E 001°34'511.0
2018-Dec-05 03:31N 50°57' E 001°28'611.7
2018-Dec-05 03:00N 50°51' E 001°27'612.1
2018-Dec-05 02:30N 50°45' E 001°25'6 9.0
2018-Dec-05 01:48N 50°41' E 001°17'412.3
2018-Dec-05 01:29N 50°38' E 001°12'7011.3
2018-Dec-04 19:20N 50°31' W 000°37'514.1
2018-Dec-04 19:00N 50°33' W 000°44'3302.6
2018-Dec-04 19:00N 50°30' W 000°42'1020.5 130 / 101023.1 5.4 10.5 0.8
2018-Dec-04 18:30N 50°38' W 000°52'612.2
2018-Dec-04 18:01N 50°42' W 000°58'3164.9
2018-Dec-04 18:00N 50°42' W 000°54'816.3 090 / 141022.7 5.4 9.6 3.4
2018-Dec-04 17:30N 50°45' W 001°05'3 6.5
2018-Dec-04 17:00N 50°49' W 001°06'0 0.0
2018-Dec-04 16:30N 50°49' W 001°06'0 0.0
2018-Dec-04 16:00N 50°49' W 001°06'0 0.0
2018-Dec-04 15:30N 50°49' W 001°06'0 0.0
2018-Dec-04 15:00N 50°49' W 001°06'0 0.0
2018-Dec-04 14:29N 50°49' W 001°06'0 0.0
2018-Dec-04 13:59N 50°49' W 001°06'0 0.0
2018-Dec-04 13:29N 50°49' W 001°06'0 0.0
2018-Dec-04 12:59N 50°49' W 001°06'0 0.0
2018-Dec-04 12:28N 50°49' W 001°06'0 0.0
2018-Dec-04 11:58N 50°49' W 001°06'0 0.0
2018-Dec-04 11:28N 50°49' W 001°06'0 0.0
2018-Dec-04 10:58N 50°49' W 001°06'0 0.0
2018-Dec-04 10:28N 50°49' W 001°06'0 0.0
2018-Dec-04 10:00N 50°49' W 001°06'0 0.0
2018-Dec-04 09:30N 50°49' W 001°06'0 0.0
2018-Dec-04 09:00N 50°49' W 001°06'0 0.0
2018-Dec-04 08:30N 50°49' W 001°06'0 0.0
2018-Dec-04 08:01N 50°49' W 001°06'1 1.8
2018-Dec-04 07:31N 50°48' W 001°07'611.1
2018-Dec-04 07:00N 50°43' W 001°02'611.4
2018-Dec-04 06:30N 50°39' W 000°56'713.4
2018-Dec-04 06:00N 50°37' W 000°46'2813.8
2018-Dec-04 03:59N 50°31' W 000°03'714.0
2018-Dec-04 03:31N 50°33' E 000°07'814.1
2018-Dec-04 02:58N 50°34' E 000°18'714.1
2018-Dec-04 02:29N 50°36' E 000°29'714.1
2018-Dec-04 02:00N 50°39' E 000°39'714.7
2018-Dec-04 01:30N 50°43' E 000°48'714.3
2018-Dec-04 01:00N 50°46' E 000°58'714.2
2018-Dec-04 00:30N 50°50' E 001°07'815.0
2018-Dec-04 00:01N 50°56' E 001°15'815.1
2018-Dec-03 23:30N 51°02' E 001°23'714.4
2018-Dec-03 23:00N 51°06' E 001°32'713.4
2018-Dec-03 22:30N 51°11' E 001°40'713.3
2018-Dec-03 22:00N 51°16' E 001°47'713.9
2018-Dec-03 21:30N 51°22' E 001°52'713.2
2018-Dec-03 21:00N 51°26' E 002°00'714.5
2018-Dec-03 20:30N 51°22' E 002°10'713.1
2018-Dec-03 20:00N 51°21' E 002°20'714.2
2018-Dec-03 19:29N 51°23' E 002°31'714.1
2018-Dec-03 19:00N 51°23' E 002°42'2 4.0
2018-Dec-03 18:30N 51°22' E 002°45'714.1
2018-Dec-03 18:00N 51°23' E 002°56'714.1
2018-Dec-03 17:31N 51°24' E 003°07'5 8.5
2018-Dec-03 16:58N 51°20' E 003°12'0 0.0
2018-Dec-03 16:01N 51°20' E 003°12'0 0.0
2018-Dec-03 15:55N 51°20' E 003°12'0 0.0
2018-Dec-03 15:28N 51°20' E 003°12'0 0.0
2018-Dec-03 15:00N 51°20' E 003°12'0 0.0
2018-Dec-03 14:30N 51°20' E 003°12'0 0.0
2018-Dec-03 14:00N 51°20' E 003°12'0 0.0
2018-Dec-03 13:30N 51°20' E 003°12'0 0.0
2018-Dec-03 13:00N 51°20' E 003°12'0 0.0
2018-Dec-03 12:29N 51°20' E 003°12'0 0.0
2018-Dec-03 11:59N 51°20' E 003°12'0 0.0
2018-Dec-03 11:29N 51°20' E 003°12'0 0.0
2018-Dec-03 10:59N 51°20' E 003°12'0 0.0
2018-Dec-03 10:28N 51°20' E 003°12'0 0.0
2018-Dec-03 09:58N 51°20' E 003°12'0 0.0
2018-Dec-03 09:28N 51°20' E 003°12'0 0.0
2018-Dec-03 08:58N 51°20' E 003°12'0 0.0
2018-Dec-03 08:28N 51°20' E 003°12'0 0.0
2018-Dec-03 08:00N 51°20' E 003°12'0 0.0
2018-Dec-03 07:30N 51°20' E 003°12'1 1.7
2018-Dec-03 07:00N 51°21' E 003°12'713.1
2018-Dec-03 06:30N 51°24' E 003°03'814.2
2018-Dec-03 05:59N 51°22' E 002°52'511.4
2018-Dec-03 05:30N 51°22' E 002°43'711.3
2018-Dec-03 04:53N 51°22' E 002°32'612.3
2018-Dec-03 04:22N 51°28' E 002°34'512.9
2018-Dec-03 03:59N 51°33' E 002°38'5411.5
2018-Dec-02 23:18N 52°20' E 003°21'310.4
2018-Dec-02 22:59N 52°21' E 003°25'510.5
2018-Dec-02 22:30N 52°24' E 003°32'510.5
2018-Dec-02 21:59N 52°27' E 003°39'510.5
2018-Dec-02 21:30N 52°30' E 003°47'610.7
2018-Dec-02 20:59N 52°31' E 003°55'511.5
2018-Dec-02 20:30N 52°31' E 004°04'611.9
2018-Dec-02 20:00N 52°31' E 004°14'612.2
2018-Dec-02 19:30N 52°30' E 004°24'5 9.8
2018-Dec-02 19:00N 52°28' E 004°32'2 4.1
2018-Dec-02 18:30N 52°28' E 004°35'0 0.0
2018-Dec-02 17:57N 52°28' E 004°35'0 0.0
2018-Dec-02 17:29N 52°28' E 004°35'0 0.0
2018-Dec-02 16:59N 52°28' E 004°35'0 0.0
2018-Dec-02 16:29N 52°28' E 004°35'0 0.0
2018-Dec-02 15:59N 52°28' E 004°35'0 0.0
2018-Dec-02 15:29N 52°28' E 004°35'0 0.0
2018-Dec-02 14:58N 52°28' E 004°35'0 0.0
2018-Dec-02 14:28N 52°28' E 004°35'0 0.0
2018-Dec-02 13:55N 52°28' E 004°35'0 0.0
2018-Dec-02 13:28N 52°28' E 004°35'0 0.0
2018-Dec-02 13:00N 52°28' E 004°35'0 0.0
2018-Dec-02 12:30N 52°28' E 004°35'0 0.0
2018-Dec-02 12:00N 52°28' E 004°35'0 0.0
2018-Dec-02 11:30N 52°28' E 004°35'0 0.0
2018-Dec-02 11:00N 52°28' E 004°35'0 0.0
2018-Dec-02 10:29N 52°28' E 004°35'0 0.0
2018-Dec-02 09:59N 52°28' E 004°35'0 0.0
2018-Dec-02 09:29N 52°28' E 004°35'0 0.0
2018-Dec-02 08:59N 52°28' E 004°35'0 0.0
2018-Dec-02 08:28N 52°28' E 004°35'0 0.0
2018-Dec-02 07:58N 52°28' E 004°35'0 0.0
2018-Dec-02 07:28N 52°28' E 004°35'0 0.0
2018-Dec-02 06:58N 52°28' E 004°35'0 0.6
2018-Dec-02 06:30N 52°28' E 004°35'4 8.5
2018-Dec-02 06:00N 52°28' E 004°28'612.1
2018-Dec-02 05:31N 52°28' E 004°18'612.5
2018-Dec-02 05:00N 52°29' E 004°08'811.9
2018-Dec-02 04:19N 52°27' E 003°55'512.0
2018-Dec-02 03:56N 52°25' E 003°48'511.7
2018-Dec-02 03:30N 52°24' E 003°40'3511.5
2018-Dec-02 00:26N 52°01' E 002°57'2411.7
2018-Dec-01 22:23N 51°43' E 002°30'820.7
2018-Dec-01 22:00N 51°36' E 002°24'3383.0 220 / 28999.510.8 12.711.814.5
2018-Dec-01 21:59N 51°39' E 002°25'612.4
2018-Dec-01 21:30N 51°35' E 002°19'612.9
2018-Dec-01 21:00N 51°30' E 002°12'612.8
2018-Dec-01 20:30N 51°25' E 002°05'612.9
2018-Dec-01 20:00N 51°20' E 001°59'713.2
2018-Dec-01 19:31N 51°15' E 001°52'714.2
2018-Dec-01 19:00N 51°10' E 001°45'714.4
2018-Dec-01 18:30N 51°04' E 001°37'510.2
2018-Dec-01 18:00N 51°05' E 001°29'510.4
2018-Dec-01 17:31N 51°08' E 001°22'2 3.6
2018-Dec-01 16:57N 51°07' E 001°19'0 0.0
2018-Dec-01 16:27N 51°07' E 001°19'0 0.0
2018-Dec-01 15:59N 51°07' E 001°19'0 0.0
2018-Dec-01 15:20N 51°07' E 001°19'0 0.0
2018-Dec-01 14:59N 51°07' E 001°19'0 0.0
2018-Dec-01 11:00N 51°07' E 001°19'0 0.0
2018-Dec-01 10:30N 51°07' E 001°19'0 0.0
2018-Dec-01 10:00N 51°07' E 001°19'0 0.0
2018-Dec-01 09:30N 51°07' E 001°19'0 0.0
2018-Dec-01 08:43N 51°07' E 001°19'0 1.7
2018-Dec-01 08:30N 51°07' E 001°20'3 5.4
2018-Dec-01 08:00N 51°07' E 001°24'611.2
2018-Dec-01 07:30N 51°02' E 001°25'714.3
2018-Dec-01 07:00N 50°55' E 001°25'917.1
2018-Dec-01 06:30N 50°47' E 001°22'816.1
2018-Dec-01 05:59N 50°40' E 001°14'2515.1
2018-Dec-01 04:17N 50°27' E 000°39'6017.2
2018-Dec-01 00:48N 50°11' W 000°52'517.2
2018-Dec-01 00:30N 50°10' W 000°60'816.9
2018-Dec-01 00:00N 50°08' W 001°12'816.4
2018-Nov-30 23:30N 50°06' W 001°25'816.0
2018-Nov-30 23:00N 50°04' W 001°36'5371.1
2018-Nov-30 23:00N 50°00' W 001°30'1223.6 210 / 251014.310.8 12.3 6.415.5
2018-Nov-30 22:28N 50°02' W 001°49'  

Dump ship's entire track history